Pelican Rapids, Canada
Current Conditions -  °F | °C
As of 12:00 AM on Saturday 25 Oct 2014 (Local Time) from CYQD Reporting Station
Few Clouds Few Clouds  
Wind Chill: 33°   Ceiling: Unl
Heat Index: 41°   Visibility: 15mi
Dew Point: 32°   Wind: 16mph
Humidity: 70%   Direction: 280°W
Pressure: 29.69"   Gusts: 29mph
Location:  52.62°N, 100.73°W
Report Text: CYQD 250500Z 28014G25KT 15SM FEW020 05/M00 A2969 RMK SC1 TR SCSLP065
Loading
Personal Weather Stations






























Interactive Weather Map
Tropical Storm Tracking
New forecast layout! Learn more

10-Day Weather Forecast

Advertisements
Track Severe Weather on mobile